sensor_id;sensor_type;location;lat;lon;timestamp;temperature;humidity
17697;DHT22;8967;47.984;7.842;2023-07-29T00:02:25;19.70;99.90
17697;DHT22;8967;47.984;7.842;2023-07-29T00:04:56;19.70;99.90
17697;DHT22;8967;47.984;7.842;2023-07-29T00:07:23;19.70;99.90
17697;DHT22;8967;47.984;7.842;2023-07-29T00:09:50;19.70;99.90
17697;DHT22;8967;47.984;7.842;2023-07-29T00:12:19;19.70;99.90
17697;DHT22;8967;47.984;7.842;2023-07-29T00:14:46;19.70;99.90
17697;DHT22;8967;47.984;7.842;2023-07-29T00:17:13;19.70;99.90
17697;DHT22;8967;47.984;7.842;2023-07-29T00:19:39;19.70;99.90
17697;DHT22;8967;47.984;7.842;2023-07-29T00:22:10;19.60;99.90
17697;DHT22;8967;47.984;7.842;2023-07-29T00:24:37;19.60;99.90
17697;DHT22;8967;47.984;7.842;2023-07-29T00:27:04;19.60;99.90
17697;DHT22;8967;47.984;7.842;2023-07-29T00:29:33;19.60;99.90
17697;DHT22;8967;47.984;7.842;2023-07-29T00:32:03;19.60;99.90
17697;DHT22;8967;47.984;7.842;2023-07-29T00:34:32;19.60;99.90
17697;DHT22;8967;47.984;7.842;2023-07-29T00:36:59;19.70;99.90
17697;DHT22;8967;47.984;7.842;2023-07-29T00:39:27;19.60;99.90
17697;DHT22;8967;47.984;7.842;2023-07-29T00:41:54;19.60;99.90
17697;DHT22;8967;47.984;7.842;2023-07-29T00:44:21;19.60;99.90
17697;DHT22;8967;47.984;7.842;2023-07-29T00:46:50;19.60;99.90
17697;DHT22;8967;47.984;7.842;2023-07-29T00:49:19;19.60;99.90
17697;DHT22;8967;47.984;7.842;2023-07-29T00:51:46;19.60;99.90
17697;DHT22;8967;47.984;7.842;2023-07-29T00:54:14;19.60;99.90
17697;DHT22;8967;47.984;7.842;2023-07-29T00:56:42;19.60;99.90
17697;DHT22;8967;47.984;7.842;2023-07-29T00:59:09;19.60;99.90
17697;DHT22;8967;47.984;7.842;2023-07-29T01:01:36;19.60;99.90
17697;DHT22;8967;47.984;7.842;2023-07-29T01:04:03;19.60;99.90
17697;DHT22;8967;47.984;7.842;2023-07-29T01:06:43;19.60;99.90
17697;DHT22;8967;47.984;7.842;2023-07-29T01:09:16;19.60;99.90
17697;DHT22;8967;47.984;7.842;2023-07-29T01:11:50;19.50;99.90
17697;DHT22;8967;47.984;7.842;2023-07-29T01:14:26;19.50;99.90
17697;DHT22;8967;47.984;7.842;2023-07-29T01:17:00;19.50;99.90
17697;DHT22;8967;47.984;7.842;2023-07-29T01:19:45;19.50;99.90
17697;DHT22;8967;47.984;7.842;2023-07-29T01:22:16;19.50;99.90
17697;DHT22;8967;47.984;7.842;2023-07-29T01:24:47;19.60;99.90
17697;DHT22;8967;47.984;7.842;2023-07-29T01:27:14;19.50;99.90
17697;DHT22;8967;47.984;7.842;2023-07-29T01:29:41;19.60;99.90
17697;DHT22;8967;47.984;7.842;2023-07-29T01:32:25;19.60;99.90
17697;DHT22;8967;47.984;7.842;2023-07-29T01:34:59;19.60;99.90
17697;DHT22;8967;47.984;7.842;2023-07-29T01:37:31;19.60;99.90
17697;DHT22;8967;47.984;7.842;2023-07-29T01:40:01;19.60;99.90
17697;DHT22;8967;47.984;7.842;2023-07-29T01:42:30;19.60;99.90
17697;DHT22;8967;47.984;7.842;2023-07-29T01:44:57;19.60;99.90
17697;DHT22;8967;47.984;7.842;2023-07-29T01:47:25;19.60;99.90
17697;DHT22;8967;47.984;7.842;2023-07-29T01:49:54;19.60;99.90
17697;DHT22;8967;47.984;7.842;2023-07-29T01:52:23;19.60;99.90
17697;DHT22;8967;47.984;7.842;2023-07-29T01:54:50;19.60;99.90
17697;DHT22;8967;47.984;7.842;2023-07-29T01:57:18;19.60;99.90
17697;DHT22;8967;47.984;7.842;2023-07-29T01:59:46;19.60;99.90
17697;DHT22;8967;47.984;7.842;2023-07-29T02:02:13;19.60;99.90
17697;DHT22;8967;47.984;7.842;2023-07-29T02:04:40;19.60;99.90
17697;DHT22;8967;47.984;7.842;2023-07-29T02:07:07;19.60;99.90
17697;DHT22;8967;47.984;7.842;2023-07-29T02:09:36;19.60;99.90
17697;DHT22;8967;47.984;7.842;2023-07-29T02:12:03;19.60;99.90
17697;DHT22;8967;47.984;7.842;2023-07-29T02:14:38;19.60;99.90
17697;DHT22;8967;47.984;7.842;2023-07-29T02:17:05;19.60;99.90
17697;DHT22;8967;47.984;7.842;2023-07-29T02:19:34;19.60;99.90
17697;DHT22;8967;47.984;7.842;2023-07-29T02:22:03;19.60;99.90
17697;DHT22;8967;47.984;7.842;2023-07-29T02:24:30;19.60;99.90
17697;DHT22;8967;47.984;7.842;2023-07-29T02:26:59;19.60;99.90
17697;DHT22;8967;47.984;7.842;2023-07-29T02:29:26;19.60;99.90
17697;DHT22;8967;47.984;7.842;2023-07-29T02:31:55;19.60;99.90
17697;DHT22;8967;47.984;7.842;2023-07-29T02:34:21;19.60;99.90
17697;DHT22;8967;47.984;7.842;2023-07-29T02:36:48;19.60;99.90
17697;DHT22;8967;47.984;7.842;2023-07-29T02:39:15;19.60;99.90
17697;DHT22;8967;47.984;7.842;2023-07-29T02:41:44;19.60;99.90
17697;DHT22;8967;47.984;7.842;2023-07-29T02:44:11;19.60;99.90
17697;DHT22;8967;47.984;7.842;2023-07-29T02:46:38;19.60;99.90
17697;DHT22;8967;47.984;7.842;2023-07-29T02:49:07;19.60;99.90
17697;DHT22;8967;47.984;7.842;2023-07-29T02:51:34;19.60;99.90
17697;DHT22;8967;47.984;7.842;2023-07-29T02:54:01;19.60;99.90
17697;DHT22;8967;47.984;7.842;2023-07-29T02:56:28;19.60;99.90
17697;DHT22;8967;47.984;7.842;2023-07-29T02:58:56;19.60;99.90
17697;DHT22;8967;47.984;7.842;2023-07-29T03:01:23;19.60;99.90
17697;DHT22;8967;47.984;7.842;2023-07-29T03:03:50;19.60;99.90
17697;DHT22;8967;47.984;7.842;2023-07-29T03:06:19;19.60;99.90
17697;DHT22;8967;47.984;7.842;2023-07-29T03:08:45;19.60;99.90
17697;DHT22;8967;47.984;7.842;2023-07-29T03:11:14;19.60;99.90
17697;DHT22;8967;47.984;7.842;2023-07-29T03:13:44;19.60;99.90
17697;DHT22;8967;47.984;7.842;2023-07-29T03:16:12;19.60;99.90
17697;DHT22;8967;47.984;7.842;2023-07-29T03:18:45;19.60;99.90
17697;DHT22;8967;47.984;7.842;2023-07-29T03:21:12;19.60;99.90
17697;DHT22;8967;47.984;7.842;2023-07-29T03:23:42;19.60;99.90
17697;DHT22;8967;47.984;7.842;2023-07-29T03:26:09;19.60;99.90
17697;DHT22;8967;47.984;7.842;2023-07-29T03:28:39;19.60;99.90
17697;DHT22;8967;47.984;7.842;2023-07-29T03:31:06;19.60;99.90
17697;DHT22;8967;47.984;7.842;2023-07-29T03:33:34;19.60;99.90
17697;DHT22;8967;47.984;7.842;2023-07-29T03:36:01;19.60;99.90
17697;DHT22;8967;47.984;7.842;2023-07-29T03:38:28;19.60;99.90
17697;DHT22;8967;47.984;7.842;2023-07-29T03:40:57;19.60;99.90
17697;DHT22;8967;47.984;7.842;2023-07-29T03:43:23;19.60;99.90
17697;DHT22;8967;47.984;7.842;2023-07-29T03:45:55;19.60;99.90
17697;DHT22;8967;47.984;7.842;2023-07-29T03:48:24;19.60;99.90
17697;DHT22;8967;47.984;7.842;2023-07-29T03:50:54;19.60;99.90
17697;DHT22;8967;47.984;7.842;2023-07-29T03:53:21;19.60;99.90
17697;DHT22;8967;47.984;7.842;2023-07-29T03:55:48;19.60;99.90
17697;DHT22;8967;47.984;7.842;2023-07-29T03:58:17;19.60;99.90
17697;DHT22;8967;47.984;7.842;2023-07-29T04:00:43;19.50;99.90
17697;DHT22;8967;47.984;7.842;2023-07-29T04:03:10;19.60;99.90
17697;DHT22;8967;47.984;7.842;2023-07-29T04:05:37;19.60;99.90
17697;DHT22;8967;47.984;7.842;2023-07-29T04:08:04;19.60;99.90
17697;DHT22;8967;47.984;7.842;2023-07-29T04:10:31;19.60;99.90
17697;DHT22;8967;47.984;7.842;2023-07-29T04:13:00;19.60;99.90
17697;DHT22;8967;47.984;7.842;2023-07-29T04:15:31;19.60;99.90
17697;DHT22;8967;47.984;7.842;2023-07-29T04:18:00;19.60;99.90
17697;DHT22;8967;47.984;7.842;2023-07-29T04:20:27;19.60;99.90
17697;DHT22;8967;47.984;7.842;2023-07-29T04:22:56;19.60;99.90
17697;DHT22;8967;47.984;7.842;2023-07-29T04:25:23;19.60;99.90
17697;DHT22;8967;47.984;7.842;2023-07-29T04:27:50;19.60;99.90
17697;DHT22;8967;47.984;7.842;2023-07-29T04:30:17;19.60;99.90
17697;DHT22;8967;47.984;7.842;2023-07-29T04:32:45;19.60;99.90
17697;DHT22;8967;47.984;7.842;2023-07-29T04:35:14;19.60;99.90
17697;DHT22;8967;47.984;7.842;2023-07-29T04:37:41;19.60;99.90
17697;DHT22;8967;47.984;7.842;2023-07-29T04:40:08;19.60;99.90
17697;DHT22;8967;47.984;7.842;2023-07-29T04:42:36;19.70;99.90
17697;DHT22;8967;47.984;7.842;2023-07-29T04:45:04;19.70;99.90
17697;DHT22;8967;47.984;7.842;2023-07-29T04:47:32;19.70;99.90
17697;DHT22;8967;47.984;7.842;2023-07-29T04:50:00;19.70;99.90
17697;DHT22;8967;47.984;7.842;2023-07-29T04:52:27;19.70;99.90
17697;DHT22;8967;47.984;7.842;2023-07-29T04:54:57;19.70;99.90
17697;DHT22;8967;47.984;7.842;2023-07-29T04:57:26;19.70;99.90
17697;DHT22;8967;47.984;7.842;2023-07-29T04:59:55;19.80;99.90
17697;DHT22;8967;47.984;7.842;2023-07-29T05:02:22;19.80;99.90
17697;DHT22;8967;47.984;7.842;2023-07-29T05:04:48;19.80;99.90
17697;DHT22;8967;47.984;7.842;2023-07-29T05:07:17;19.80;99.90
17697;DHT22;8967;47.984;7.842;2023-07-29T05:09:44;19.80;99.90
17697;DHT22;8967;47.984;7.842;2023-07-29T05:12:11;19.80;99.90
17697;DHT22;8967;47.984;7.842;2023-07-29T05:14:37;19.90;99.90
17697;DHT22;8967;47.984;7.842;2023-07-29T05:17:05;19.90;99.90
17697;DHT22;8967;47.984;7.842;2023-07-29T05:19:34;19.90;99.90
17697;DHT22;8967;47.984;7.842;2023-07-29T05:22:01;19.90;99.90
17697;DHT22;8967;47.984;7.842;2023-07-29T05:24:29;19.90;99.90
17697;DHT22;8967;47.984;7.842;2023-07-29T05:26:56;19.90;99.90
17697;DHT22;8967;47.984;7.842;2023-07-29T05:29:23;20.00;99.90
17697;DHT22;8967;47.984;7.842;2023-07-29T05:31:50;20.00;99.90
17697;DHT22;8967;47.984;7.842;2023-07-29T05:34:17;20.00;99.90
17697;DHT22;8967;47.984;7.842;2023-07-29T05:36:45;20.00;99.90
17697;DHT22;8967;47.984;7.842;2023-07-29T05:39:11;20.10;99.90
17697;DHT22;8967;47.984;7.842;2023-07-29T05:41:40;20.10;99.90
17697;DHT22;8967;47.984;7.842;2023-07-29T05:44:07;20.10;99.90
17697;DHT22;8967;47.984;7.842;2023-07-29T05:46:33;20.20;99.90
17697;DHT22;8967;47.984;7.842;2023-07-29T05:49:00;20.20;99.90
17697;DHT22;8967;47.984;7.842;2023-07-29T05:51:28;20.20;99.90
17697;DHT22;8967;47.984;7.842;2023-07-29T05:53:55;20.30;99.90
17697;DHT22;8967;47.984;7.842;2023-07-29T05:56:22;20.30;99.90
17697;DHT22;8967;47.984;7.842;2023-07-29T05:58:52;20.30;99.90
17697;DHT22;8967;47.984;7.842;2023-07-29T06:01:19;20.40;99.90
17697;DHT22;8967;47.984;7.842;2023-07-29T06:03:47;20.40;99.90
17697;DHT22;8967;47.984;7.842;2023-07-29T06:06:13;20.40;99.90
17697;DHT22;8967;47.984;7.842;2023-07-29T06:08:40;20.40;99.90
17697;DHT22;8967;47.984;7.842;2023-07-29T06:11:07;20.50;99.90
17697;DHT22;8967;47.984;7.842;2023-07-29T06:13:34;20.50;99.90
17697;DHT22;8967;47.984;7.842;2023-07-29T06:16:02;20.50;99.90
17697;DHT22;8967;47.984;7.842;2023-07-29T06:18:29;20.60;99.90
17697;DHT22;8967;47.984;7.842;2023-07-29T06:20:57;20.60;99.90
17697;DHT22;8967;47.984;7.842;2023-07-29T06:23:24;20.60;99.90
17697;DHT22;8967;47.984;7.842;2023-07-29T06:25:51;20.70;99.90
17697;DHT22;8967;47.984;7.842;2023-07-29T06:28:20;20.70;99.90
17697;DHT22;8967;47.984;7.842;2023-07-29T06:30:47;20.70;99.90
17697;DHT22;8967;47.984;7.842;2023-07-29T06:33:15;20.80;99.90
17697;DHT22;8967;47.984;7.842;2023-07-29T06:35:42;20.80;99.90
17697;DHT22;8967;47.984;7.842;2023-07-29T06:38:09;20.80;99.90
17697;DHT22;8967;47.984;7.842;2023-07-29T06:40:36;20.80;99.90
17697;DHT22;8967;47.984;7.842;2023-07-29T06:43:03;20.80;99.90
17697;DHT22;8967;47.984;7.842;2023-07-29T06:45:30;20.80;99.90
17697;DHT22;8967;47.984;7.842;2023-07-29T06:47:56;20.80;99.90
17697;DHT22;8967;47.984;7.842;2023-07-29T06:50:25;20.90;99.90
17697;DHT22;8967;47.984;7.842;2023-07-29T06:52:52;20.90;99.90
17697;DHT22;8967;47.984;7.842;2023-07-29T06:55:21;20.80;99.90
17697;DHT22;8967;47.984;7.842;2023-07-29T06:57:48;20.80;99.90
17697;DHT22;8967;47.984;7.842;2023-07-29T07:00:15;20.80;99.90
17697;DHT22;8967;47.984;7.842;2023-07-29T07:02:42;20.80;99.90
17697;DHT22;8967;47.984;7.842;2023-07-29T07:05:09;20.80;99.90
17697;DHT22;8967;47.984;7.842;2023-07-29T07:07:37;20.80;99.90
17697;DHT22;8967;47.984;7.842;2023-07-29T07:10:05;20.90;99.90
17697;DHT22;8967;47.984;7.842;2023-07-29T07:12:32;20.90;99.90
17697;DHT22;8967;47.984;7.842;2023-07-29T07:15:00;20.90;99.90
17697;DHT22;8967;47.984;7.842;2023-07-29T07:17:27;20.90;99.90
17697;DHT22;8967;47.984;7.842;2023-07-29T07:19:56;20.90;99.90
17697;DHT22;8967;47.984;7.842;2023-07-29T07:22:23;20.90;99.90
17697;DHT22;8967;47.984;7.842;2023-07-29T07:24:52;20.90;99.90
17697;DHT22;8967;47.984;7.842;2023-07-29T07:27:18;20.90;99.90
17697;DHT22;8967;47.984;7.842;2023-07-29T07:29:45;20.90;99.90
17697;DHT22;8967;47.984;7.842;2023-07-29T07:32:12;20.90;99.90
17697;DHT22;8967;47.984;7.842;2023-07-29T07:34:39;20.90;99.90
17697;DHT22;8967;47.984;7.842;2023-07-29T07:37:06;21.00;99.90
17697;DHT22;8967;47.984;7.842;2023-07-29T07:39:33;21.00;99.90
17697;DHT22;8967;47.984;7.842;2023-07-29T07:42:02;21.10;99.90
17697;DHT22;8967;47.984;7.842;2023-07-29T07:44:28;21.10;99.90
17697;DHT22;8967;47.984;7.842;2023-07-29T07:46:55;21.10;99.90
17697;DHT22;8967;47.984;7.842;2023-07-29T07:49:22;21.20;99.90
17697;DHT22;8967;47.984;7.842;2023-07-29T07:51:49;21.30;99.90
17697;DHT22;8967;47.984;7.842;2023-07-29T07:54:16;21.30;99.90
17697;DHT22;8967;47.984;7.842;2023-07-29T07:56:43;21.30;99.90
17697;DHT22;8967;47.984;7.842;2023-07-29T07:59:11;21.40;99.90
17697;DHT22;8967;47.984;7.842;2023-07-29T08:01:39;21.40;99.90
17697;DHT22;8967;47.984;7.842;2023-07-29T08:04:06;21.40;99.90
17697;DHT22;8967;47.984;7.842;2023-07-29T08:06:33;21.50;99.90
17697;DHT22;8967;47.984;7.842;2023-07-29T08:09:01;21.60;99.90
17697;DHT22;8967;47.984;7.842;2023-07-29T08:11:28;21.70;99.90
17697;DHT22;8967;47.984;7.842;2023-07-29T08:13:54;21.70;99.90
17697;DHT22;8967;47.984;7.842;2023-07-29T08:16:23;21.80;99.90
17697;DHT22;8967;47.984;7.842;2023-07-29T08:18:49;21.90;99.90
17697;DHT22;8967;47.984;7.842;2023-07-29T08:21:16;21.90;99.90
17697;DHT22;8967;47.984;7.842;2023-07-29T08:23:43;22.00;99.90
17697;DHT22;8967;47.984;7.842;2023-07-29T08:26:10;22.10;99.90
17697;DHT22;8967;47.984;7.842;2023-07-29T08:28:38;22.10;99.90
17697;DHT22;8967;47.984;7.842;2023-07-29T08:31:06;22.10;99.90
17697;DHT22;8967;47.984;7.842;2023-07-29T08:33:34;22.10;99.90
17697;DHT22;8967;47.984;7.842;2023-07-29T08:36:01;22.10;99.90
17697;DHT22;8967;47.984;7.842;2023-07-29T08:38:31;22.20;99.90
17697;DHT22;8967;47.984;7.842;2023-07-29T08:41:03;22.20;99.90
17697;DHT22;8967;47.984;7.842;2023-07-29T08:43:32;22.30;99.90
17697;DHT22;8967;47.984;7.842;2023-07-29T08:45:59;22.40;99.90
17697;DHT22;8967;47.984;7.842;2023-07-29T08:48:31;22.40;99.90
17697;DHT22;8967;47.984;7.842;2023-07-29T08:51:03;22.40;99.90
17697;DHT22;8967;47.984;7.842;2023-07-29T08:53:31;22.50;99.90
17697;DHT22;8967;47.984;7.842;2023-07-29T08:55:58;22.50;99.90
17697;DHT22;8967;47.984;7.842;2023-07-29T08:58:27;22.60;99.90
17697;DHT22;8967;47.984;7.842;2023-07-29T09:00:55;22.60;99.90
17697;DHT22;8967;47.984;7.842;2023-07-29T09:03:22;22.70;99.90
17697;DHT22;8967;47.984;7.842;2023-07-29T09:05:50;22.80;99.90
17697;DHT22;8967;47.984;7.842;2023-07-29T09:08:21;22.90;99.90
17697;DHT22;8967;47.984;7.842;2023-07-29T09:10:51;22.90;99.90
17697;DHT22;8967;47.984;7.842;2023-07-29T09:13:19;23.00;99.90
17697;DHT22;8967;47.984;7.842;2023-07-29T09:15:46;23.00;99.90
17697;DHT22;8967;47.984;7.842;2023-07-29T09:18:17;23.10;99.90
17697;DHT22;8967;47.984;7.842;2023-07-29T09:20:46;23.20;99.90
17697;DHT22;8967;47.984;7.842;2023-07-29T09:23:14;23.20;99.90
17697;DHT22;8967;47.984;7.842;2023-07-29T09:25:42;23.20;99.90
17697;DHT22;8967;47.984;7.842;2023-07-29T09:28:11;23.30;99.90
17697;DHT22;8967;47.984;7.842;2023-07-29T09:30:38;23.30;99.90
17697;DHT22;8967;47.984;7.842;2023-07-29T09:33:05;23.30;99.90
17697;DHT22;8967;47.984;7.842;2023-07-29T09:35:34;23.30;99.90
17697;DHT22;8967;47.984;7.842;2023-07-29T09:38:01;23.30;99.90
17697;DHT22;8967;47.984;7.842;2023-07-29T09:40:34;23.30;99.90
17697;DHT22;8967;47.984;7.842;2023-07-29T09:43:06;23.30;99.90
17697;DHT22;8967;47.984;7.842;2023-07-29T09:45:34;23.30;99.90
17697;DHT22;8967;47.984;7.842;2023-07-29T09:48:02;23.30;99.90
17697;DHT22;8967;47.984;7.842;2023-07-29T09:50:30;23.30;99.90
17697;DHT22;8967;47.984;7.842;2023-07-29T09:52:57;23.40;99.90
17697;DHT22;8967;47.984;7.842;2023-07-29T09:55:25;23.50;99.90
17697;DHT22;8967;47.984;7.842;2023-07-29T09:57:54;23.50;99.90
17697;DHT22;8967;47.984;7.842;2023-07-29T10:00:24;23.50;99.90
17697;DHT22;8967;47.984;7.842;2023-07-29T10:02:52;23.60;99.90
17697;DHT22;8967;47.984;7.842;2023-07-29T10:05:21;23.60;99.90
17697;DHT22;8967;47.984;7.842;2023-07-29T10:07:48;23.60;99.90
17697;DHT22;8967;47.984;7.842;2023-07-29T10:10:16;23.60;99.90
17697;DHT22;8967;47.984;7.842;2023-07-29T10:12:43;23.70;99.90
17697;DHT22;8967;47.984;7.842;2023-07-29T10:15:10;23.70;99.90
17697;DHT22;8967;47.984;7.842;2023-07-29T10:17:39;23.70;99.90
17697;DHT22;8967;47.984;7.842;2023-07-29T10:20:09;23.70;99.90
17697;DHT22;8967;47.984;7.842;2023-07-29T10:22:39;23.70;99.90
17697;DHT22;8967;47.984;7.842;2023-07-29T10:25:08;23.70;99.90
17697;DHT22;8967;47.984;7.842;2023-07-29T10:27:45;23.80;99.90
17697;DHT22;8967;47.984;7.842;2023-07-29T10:30:14;23.80;99.90
17697;DHT22;8967;47.984;7.842;2023-07-29T10:32:44;23.80;99.90
17697;DHT22;8967;47.984;7.842;2023-07-29T10:35:13;23.80;99.90
17697;DHT22;8967;47.984;7.842;2023-07-29T10:37:42;23.80;99.90
17697;DHT22;8967;47.984;7.842;2023-07-29T10:40:11;23.80;99.90
17697;DHT22;8967;47.984;7.842;2023-07-29T10:42:39;23.80;99.90
17697;DHT22;8967;47.984;7.842;2023-07-29T10:45:25;23.90;99.90
17697;DHT22;8967;47.984;7.842;2023-07-29T10:47:53;23.90;99.90
17697;DHT22;8967;47.984;7.842;2023-07-29T10:50:21;23.90;99.90
17697;DHT22;8967;47.984;7.842;2023-07-29T10:52:50;24.00;99.90
17697;DHT22;8967;47.984;7.842;2023-07-29T10:55:28;24.00;99.90
17697;DHT22;8967;47.984;7.842;2023-07-29T10:58:06;24.00;99.90
17697;DHT22;8967;47.984;7.842;2023-07-29T11:00:33;24.00;99.90
17697;DHT22;8967;47.984;7.842;2023-07-29T11:03:02;24.10;99.90
17697;DHT22;8967;47.984;7.842;2023-07-29T11:05:47;24.10;99.90
17697;DHT22;8967;47.984;7.842;2023-07-29T11:08:32;24.10;99.90
17697;DHT22;8967;47.984;7.842;2023-07-29T11:11:05;24.10;99.90
17697;DHT22;8967;47.984;7.842;2023-07-29T11:13:34;24.10;99.90
17697;DHT22;8967;47.984;7.842;2023-07-29T11:16:03;24.10;99.90
17697;DHT22;8967;47.984;7.842;2023-07-29T11:18:33;24.10;99.90
17697;DHT22;8967;47.984;7.842;2023-07-29T11:21:01;24.10;99.90
17697;DHT22;8967;47.984;7.842;2023-07-29T11:23:30;24.10;99.40
17697;DHT22;8967;47.984;7.842;2023-07-29T11:25:57;24.10;99.30
17697;DHT22;8967;47.984;7.842;2023-07-29T11:28:25;24.10;99.10
17697;DHT22;8967;47.984;7.842;2023-07-29T11:30:52;24.10;98.80
17697;DHT22;8967;47.984;7.842;2023-07-29T11:33:20;24.10;98.50
17697;DHT22;8967;47.984;7.842;2023-07-29T11:35:49;24.10;98.40
17697;DHT22;8967;47.984;7.842;2023-07-29T11:38:17;24.10;98.40
17697;DHT22;8967;47.984;7.842;2023-07-29T11:40:54;24.10;98.30
17697;DHT22;8967;47.984;7.842;2023-07-29T11:43:21;24.10;98.40
17697;DHT22;8967;47.984;7.842;2023-07-29T11:45:48;24.10;98.40
17697;DHT22;8967;47.984;7.842;2023-07-29T11:48:14;24.10;98.10
17697;DHT22;8967;47.984;7.842;2023-07-29T11:50:41;24.10;97.90
17697;DHT22;8967;47.984;7.842;2023-07-29T11:53:11;24.10;97.80
17697;DHT22;8967;47.984;7.842;2023-07-29T11:55:38;24.20;97.50
17697;DHT22;8967;47.984;7.842;2023-07-29T11:58:07;24.20;97.30
17697;DHT22;8967;47.984;7.842;2023-07-29T12:00:34;24.20;97.60
17697;DHT22;8967;47.984;7.842;2023-07-29T12:03:01;24.20;97.10
17697;DHT22;8967;47.984;7.842;2023-07-29T12:05:29;24.30;96.70
17697;DHT22;8967;47.984;7.842;2023-07-29T12:07:56;24.30;96.60
17697;DHT22;8967;47.984;7.842;2023-07-29T12:10:25;24.30;96.60
17697;DHT22;8967;47.984;7.842;2023-07-29T12:12:52;24.40;96.60
17697;DHT22;8967;47.984;7.842;2023-07-29T12:15:23;24.40;96.60
17697;DHT22;8967;47.984;7.842;2023-07-29T12:17:54;24.40;96.80
17697;DHT22;8967;47.984;7.842;2023-07-29T12:20:23;24.40;97.00
17697;DHT22;8967;47.984;7.842;2023-07-29T12:22:53;24.50;97.10
17697;DHT22;8967;47.984;7.842;2023-07-29T12:25:21;24.50;97.20
17697;DHT22;8967;47.984;7.842;2023-07-29T12:27:49;24.50;96.70
17697;DHT22;8967;47.984;7.842;2023-07-29T12:30:19;24.50;96.30
17697;DHT22;8967;47.984;7.842;2023-07-29T12:32:47;24.60;96.40
17697;DHT22;8967;47.984;7.842;2023-07-29T12:35:14;24.50;96.30
17697;DHT22;8967;47.984;7.842;2023-07-29T12:37:41;24.60;96.30
17697;DHT22;8967;47.984;7.842;2023-07-29T12:40:29;24.60;96.30
17697;DHT22;8967;47.984;7.842;2023-07-29T12:42:57;24.60;96.40
17697;DHT22;8967;47.984;7.842;2023-07-29T12:45:24;24.60;96.30
17697;DHT22;8967;47.984;7.842;2023-07-29T12:47:52;24.60;96.30
17697;DHT22;8967;47.984;7.842;2023-07-29T12:50:19;24.60;96.20
17697;DHT22;8967;47.984;7.842;2023-07-29T12:52:46;24.60;95.90
17697;DHT22;8967;47.984;7.842;2023-07-29T12:55:13;24.60;96.00
17697;DHT22;8967;47.984;7.842;2023-07-29T12:57:41;24.60;96.00
17697;DHT22;8967;47.984;7.842;2023-07-29T13:00:11;24.60;95.70
17697;DHT22;8967;47.984;7.842;2023-07-29T13:02:38;24.60;95.80
17697;DHT22;8967;47.984;7.842;2023-07-29T13:05:08;24.60;95.70
17697;DHT22;8967;47.984;7.842;2023-07-29T13:07:35;24.70;95.60
17697;DHT22;8967;47.984;7.842;2023-07-29T13:10:02;24.70;95.50
17697;DHT22;8967;47.984;7.842;2023-07-29T13:12:32;24.70;95.20
17697;DHT22;8967;47.984;7.842;2023-07-29T13:14:59;24.70;95.10
17697;DHT22;8967;47.984;7.842;2023-07-29T13:17:29;24.70;95.10
17697;DHT22;8967;47.984;7.842;2023-07-29T13:19:56;24.70;95.30
17697;DHT22;8967;47.984;7.842;2023-07-29T13:22:25;24.70;95.40
17697;DHT22;8967;47.984;7.842;2023-07-29T13:24:52;24.70;95.40
17697;DHT22;8967;47.984;7.842;2023-07-29T13:27:19;24.70;95.50
17697;DHT22;8967;47.984;7.842;2023-07-29T13:29:46;24.70;95.50
17697;DHT22;8967;47.984;7.842;2023-07-29T13:32:15;24.70;95.30
17697;DHT22;8967;47.984;7.842;2023-07-29T13:34:44;24.70;95.40
17697;DHT22;8967;47.984;7.842;2023-07-29T13:37:11;24.70;95.50
17697;DHT22;8967;47.984;7.842;2023-07-29T13:39:40;24.70;95.60
17697;DHT22;8967;47.984;7.842;2023-07-29T13:42:07;24.70;95.60
17697;DHT22;8967;47.984;7.842;2023-07-29T13:44:34;24.60;95.40
17697;DHT22;8967;47.984;7.842;2023-07-29T13:47:00;24.60;95.20
17697;DHT22;8967;47.984;7.842;2023-07-29T13:49:27;24.60;95.10
17697;DHT22;8967;47.984;7.842;2023-07-29T13:51:55;24.50;95.10
17697;DHT22;8967;47.984;7.842;2023-07-29T13:54:22;24.50;95.10
17697;DHT22;8967;47.984;7.842;2023-07-29T13:56:52;24.50;94.80
17697;DHT22;8967;47.984;7.842;2023-07-29T13:59:19;24.50;94.50
17697;DHT22;8967;47.984;7.842;2023-07-29T14:01:46;24.50;94.20
17697;DHT22;8967;47.984;7.842;2023-07-29T14:04:13;24.50;94.20
17697;DHT22;8967;47.984;7.842;2023-07-29T14:06:41;24.50;94.10
17697;DHT22;8967;47.984;7.842;2023-07-29T14:09:11;24.50;94.10
17697;DHT22;8967;47.984;7.842;2023-07-29T14:11:38;24.50;94.10
17697;DHT22;8967;47.984;7.842;2023-07-29T14:14:06;24.50;94.20
17697;DHT22;8967;47.984;7.842;2023-07-29T14:16:33;24.50;94.30
17697;DHT22;8967;47.984;7.842;2023-07-29T14:19:00;24.50;94.30
17697;DHT22;8967;47.984;7.842;2023-07-29T14:21:27;24.50;94.30
17697;DHT22;8967;47.984;7.842;2023-07-29T14:23:54;24.50;94.50
17697;DHT22;8967;47.984;7.842;2023-07-29T14:26:25;24.50;94.60
17697;DHT22;8967;47.984;7.842;2023-07-29T14:28:51;24.50;95.20
17697;DHT22;8967;47.984;7.842;2023-07-29T14:31:18;24.50;96.20
17697;DHT22;8967;47.984;7.842;2023-07-29T14:33:45;24.50;96.90
17697;DHT22;8967;47.984;7.842;2023-07-29T14:36:12;24.40;97.90
17697;DHT22;8967;47.984;7.842;2023-07-29T14:38:39;24.30;98.20
17697;DHT22;8967;47.984;7.842;2023-07-29T14:41:06;24.20;98.70
17697;DHT22;8967;47.984;7.842;2023-07-29T14:43:35;24.20;99.10
17697;DHT22;8967;47.984;7.842;2023-07-29T14:46:02;24.10;99.70
17697;DHT22;8967;47.984;7.842;2023-07-29T14:48:29;24.00;99.90
17697;DHT22;8967;47.984;7.842;2023-07-29T14:50:56;23.90;99.90
17697;DHT22;8967;47.984;7.842;2023-07-29T14:53:23;23.90;99.90
17697;DHT22;8967;47.984;7.842;2023-07-29T14:55:50;23.80;99.90
17697;DHT22;8967;47.984;7.842;2023-07-29T14:58:17;23.70;99.90
17697;DHT22;8967;47.984;7.842;2023-07-29T15:00:45;23.60;99.90
17697;DHT22;8967;47.984;7.842;2023-07-29T15:03:12;23.60;99.90
17697;DHT22;8967;47.984;7.842;2023-07-29T15:05:39;23.60;99.90
17697;DHT22;8967;47.984;7.842;2023-07-29T15:08:06;23.50;99.90
17697;DHT22;8967;47.984;7.842;2023-07-29T15:10:33;23.40;99.90
17697;DHT22;8967;47.984;7.842;2023-07-29T15:13:00;23.40;99.90
17697;DHT22;8967;47.984;7.842;2023-07-29T15:15:27;23.30;99.90
17697;DHT22;8967;47.984;7.842;2023-07-29T15:17:55;23.30;99.90
17697;DHT22;8967;47.984;7.842;2023-07-29T15:20:22;23.30;99.90
17697;DHT22;8967;47.984;7.842;2023-07-29T15:22:52;23.30;99.90
17697;DHT22;8967;47.984;7.842;2023-07-29T15:25:18;23.30;99.90
17697;DHT22;8967;47.984;7.842;2023-07-29T15:27:45;23.30;99.90
17697;DHT22;8967;47.984;7.842;2023-07-29T15:30:13;23.30;99.90
17697;DHT22;8967;47.984;7.842;2023-07-29T15:32:40;23.30;99.90
17697;DHT22;8967;47.984;7.842;2023-07-29T15:35:09;23.30;99.90
17697;DHT22;8967;47.984;7.842;2023-07-29T15:37:35;23.30;99.90
17697;DHT22;8967;47.984;7.842;2023-07-29T15:40:03;23.30;99.90
17697;DHT22;8967;47.984;7.842;2023-07-29T15:42:30;23.20;99.90
17697;DHT22;8967;47.984;7.842;2023-07-29T15:44:57;23.20;99.90
17697;DHT22;8967;47.984;7.842;2023-07-29T15:47:24;23.30;99.90
17697;DHT22;8967;47.984;7.842;2023-07-29T15:49:50;23.30;99.90
17697;DHT22;8967;47.984;7.842;2023-07-29T15:52:21;23.20;99.90